ΕΜΥ, Εθνική Μετεωρολογική Υπηρεσία - Δελτία Καιρού, Προγνώσεις

ΑΕΡΟΝΑΥΤΙΛΙΑ

GREEK AIRPORTS CODES

LGML 190800Z 35016KT 9999 FEW018 19/13 Q1024=

EUROPEAN AIRPORTS CODES

LFPO 200430Z 18008KT CAVOK 15/12 Q1012 NOSIG=